sensor_id;sensor_type;location;lat;lon;timestamp;P1;durP1;ratioP1;P2;durP2;ratioP2
19810;SDS011;10065;49.632;8.346;2022-12-29T00:00:24;3.40;;;1.10;;
19810;SDS011;10065;49.632;8.346;2022-12-29T00:02:52;4.10;;;1.73;;
19810;SDS011;10065;49.632;8.346;2022-12-29T00:05:21;3.20;;;1.23;;
19810;SDS011;10065;49.632;8.346;2022-12-29T00:07:49;1.60;;;0.90;;
19810;SDS011;10065;49.632;8.346;2022-12-29T00:10:17;2.13;;;1.13;;
19810;SDS011;10065;49.632;8.346;2022-12-29T00:12:44;4.50;;;1.37;;
19810;SDS011;10065;49.632;8.346;2022-12-29T00:15:30;4.60;;;1.10;;
19810;SDS011;10065;49.632;8.346;2022-12-29T00:18:07;3.77;;;1.17;;
19810;SDS011;10065;49.632;8.346;2022-12-29T00:20:37;3.37;;;1.10;;
19810;SDS011;10065;49.632;8.346;2022-12-29T00:23:23;5.00;;;1.20;;
19810;SDS011;10065;49.632;8.346;2022-12-29T00:26:11;3.60;;;1.13;;
19810;SDS011;10065;49.632;8.346;2022-12-29T00:28:58;5.93;;;1.10;;
19810;SDS011;10065;49.632;8.346;2022-12-29T00:31:44;4.23;;;1.00;;
19810;SDS011;10065;49.632;8.346;2022-12-29T00:34:29;2.43;;;0.97;;
19810;SDS011;10065;49.632;8.346;2022-12-29T00:37:12;3.80;;;1.03;;
19810;SDS011;10065;49.632;8.346;2022-12-29T00:39:40;4.90;;;1.00;;
19810;SDS011;10065;49.632;8.346;2022-12-29T00:42:25;1.83;;;0.77;;
19810;SDS011;10065;49.632;8.346;2022-12-29T00:45:07;5.00;;;1.20;;
19810;SDS011;10065;49.632;8.346;2022-12-29T00:47:35;8.20;;;2.40;;
19810;SDS011;10065;49.632;8.346;2022-12-29T00:50:03;2.47;;;0.90;;
19810;SDS011;10065;49.632;8.346;2022-12-29T00:52:32;2.37;;;0.97;;
19810;SDS011;10065;49.632;8.346;2022-12-29T00:54:59;2.13;;;0.83;;
19810;SDS011;10065;49.632;8.346;2022-12-29T00:57:27;4.13;;;1.10;;
19810;SDS011;10065;49.632;8.346;2022-12-29T00:59:55;3.53;;;1.20;;
19810;SDS011;10065;49.632;8.346;2022-12-29T01:02:22;3.60;;;0.93;;
19810;SDS011;10065;49.632;8.346;2022-12-29T01:04:50;1.67;;;0.70;;
19810;SDS011;10065;49.632;8.346;2022-12-29T01:07:35;15.27;;;1.43;;
19810;SDS011;10065;49.632;8.346;2022-12-29T01:10:03;2.53;;;0.80;;
19810;SDS011;10065;49.632;8.346;2022-12-29T01:12:36;2.27;;;0.60;;
19810;SDS011;10065;49.632;8.346;2022-12-29T01:15:12;3.00;;;0.90;;
19810;SDS011;10065;49.632;8.346;2022-12-29T01:17:41;2.33;;;0.70;;
19810;SDS011;10065;49.632;8.346;2022-12-29T01:20:09;2.47;;;0.50;;
19810;SDS011;10065;49.632;8.346;2022-12-29T01:22:40;2.70;;;0.80;;
19810;SDS011;10065;49.632;8.346;2022-12-29T01:25:10;1.20;;;0.70;;
19810;SDS011;10065;49.632;8.346;2022-12-29T01:27:37;2.20;;;0.60;;
19810;SDS011;10065;49.632;8.346;2022-12-29T01:30:08;1.60;;;0.60;;
19810;SDS011;10065;49.632;8.346;2022-12-29T01:32:36;1.40;;;0.70;;
19810;SDS011;10065;49.632;8.346;2022-12-29T01:35:04;2.47;;;0.77;;
19810;SDS011;10065;49.632;8.346;2022-12-29T01:37:32;1.70;;;0.70;;
19810;SDS011;10065;49.632;8.346;2022-12-29T01:40:01;2.40;;;0.50;;
19810;SDS011;10065;49.632;8.346;2022-12-29T01:42:29;1.43;;;0.50;;
19810;SDS011;10065;49.632;8.346;2022-12-29T01:44:58;1.20;;;0.63;;
19810;SDS011;10065;49.632;8.346;2022-12-29T01:47:30;1.60;;;0.70;;
19810;SDS011;10065;49.632;8.346;2022-12-29T01:50:03;2.00;;;0.60;;
19810;SDS011;10065;49.632;8.346;2022-12-29T01:52:36;3.67;;;0.50;;
19810;SDS011;10065;49.632;8.346;2022-12-29T01:55:10;1.63;;;0.60;;
19810;SDS011;10065;49.632;8.346;2022-12-29T01:57:40;2.60;;;0.53;;
19810;SDS011;10065;49.632;8.346;2022-12-29T02:00:12;1.80;;;0.60;;
19810;SDS011;10065;49.632;8.346;2022-12-29T02:02:43;1.07;;;0.57;;
19810;SDS011;10065;49.632;8.346;2022-12-29T02:05:14;1.20;;;0.60;;
19810;SDS011;10065;49.632;8.346;2022-12-29T02:07:47;1.67;;;0.57;;
19810;SDS011;10065;49.632;8.346;2022-12-29T02:10:19;1.67;;;0.80;;
19810;SDS011;10065;49.632;8.346;2022-12-29T02:12:49;1.67;;;0.50;;
19810;SDS011;10065;49.632;8.346;2022-12-29T02:15:17;1.70;;;0.77;;
19810;SDS011;10065;49.632;8.346;2022-12-29T02:17:53;2.07;;;0.77;;
19810;SDS011;10065;49.632;8.346;2022-12-29T02:20:39;2.17;;;0.70;;
19810;SDS011;10065;49.632;8.346;2022-12-29T02:23:27;2.00;;;0.60;;
19810;SDS011;10065;49.632;8.346;2022-12-29T02:26:10;2.40;;;0.60;;
19810;SDS011;10065;49.632;8.346;2022-12-29T02:29:11;1.50;;;0.80;;
19810;SDS011;10065;49.632;8.346;2022-12-29T02:32:12;1.70;;;0.60;;
19810;SDS011;10065;49.632;8.346;2022-12-29T02:34:47;1.50;;;0.70;;
19810;SDS011;10065;49.632;8.346;2022-12-29T02:37:24;3.00;;;1.10;;
19810;SDS011;10065;49.632;8.346;2022-12-29T02:40:00;1.00;;;0.70;;
19810;SDS011;10065;49.632;8.346;2022-12-29T02:42:34;1.63;;;0.60;;
19810;SDS011;10065;49.632;8.346;2022-12-29T02:45:07;2.07;;;0.70;;
19810;SDS011;10065;49.632;8.346;2022-12-29T02:47:42;1.30;;;0.60;;
19810;SDS011;10065;49.632;8.346;2022-12-29T02:50:19;2.17;;;0.70;;
19810;SDS011;10065;49.632;8.346;2022-12-29T02:52:54;1.37;;;0.63;;
19810;SDS011;10065;49.632;8.346;2022-12-29T02:55:25;1.67;;;0.77;;
19810;SDS011;10065;49.632;8.346;2022-12-29T02:58:06;1.90;;;0.70;;
19810;SDS011;10065;49.632;8.346;2022-12-29T03:00:45;4.87;;;1.00;;
19810;SDS011;10065;49.632;8.346;2022-12-29T03:03:26;1.70;;;0.80;;
19810;SDS011;10065;49.632;8.346;2022-12-29T03:06:09;2.23;;;0.90;;
19810;SDS011;10065;49.632;8.346;2022-12-29T03:08:48;2.17;;;0.80;;
19810;SDS011;10065;49.632;8.346;2022-12-29T03:11:22;3.23;;;0.80;;
19810;SDS011;10065;49.632;8.346;2022-12-29T03:14:28;2.50;;;0.90;;
19810;SDS011;10065;49.632;8.346;2022-12-29T03:17:23;1.87;;;0.90;;
19810;SDS011;10065;49.632;8.346;2022-12-29T03:19:57;2.77;;;1.00;;
19810;SDS011;10065;49.632;8.346;2022-12-29T03:22:29;1.50;;;0.80;;
19810;SDS011;10065;49.632;8.346;2022-12-29T03:25:03;2.90;;;0.87;;
19810;SDS011;10065;49.632;8.346;2022-12-29T03:27:36;2.90;;;0.87;;
19810;SDS011;10065;49.632;8.346;2022-12-29T03:30:09;2.17;;;0.90;;
19810;SDS011;10065;49.632;8.346;2022-12-29T03:32:39;1.17;;;0.80;;
19810;SDS011;10065;49.632;8.346;2022-12-29T03:35:13;3.17;;;0.87;;
19810;SDS011;10065;49.632;8.346;2022-12-29T03:37:44;1.67;;;1.10;;
19810;SDS011;10065;49.632;8.346;2022-12-29T03:40:17;3.80;;;1.10;;
19810;SDS011;10065;49.632;8.346;2022-12-29T03:42:48;1.57;;;0.90;;
19810;SDS011;10065;49.632;8.346;2022-12-29T03:45:19;1.83;;;0.90;;
19810;SDS011;10065;49.632;8.346;2022-12-29T03:47:47;1.80;;;0.93;;
19810;SDS011;10065;49.632;8.346;2022-12-29T03:50:17;3.00;;;1.33;;
19810;SDS011;10065;49.632;8.346;2022-12-29T03:52:44;2.00;;;0.90;;
19810;SDS011;10065;49.632;8.346;2022-12-29T03:55:12;2.70;;;1.03;;
19810;SDS011;10065;49.632;8.346;2022-12-29T03:57:40;3.97;;;0.90;;
19810;SDS011;10065;49.632;8.346;2022-12-29T04:00:08;2.20;;;0.90;;
19810;SDS011;10065;49.632;8.346;2022-12-29T04:02:37;1.97;;;0.80;;
19810;SDS011;10065;49.632;8.346;2022-12-29T04:05:05;3.60;;;0.87;;
19810;SDS011;10065;49.632;8.346;2022-12-29T04:07:35;2.10;;;1.00;;
19810;SDS011;10065;49.632;8.346;2022-12-29T04:10:03;3.47;;;1.00;;
19810;SDS011;10065;49.632;8.346;2022-12-29T04:12:31;4.13;;;0.93;;
19810;SDS011;10065;49.632;8.346;2022-12-29T04:15:08;3.57;;;0.83;;
19810;SDS011;10065;49.632;8.346;2022-12-29T04:17:39;4.07;;;1.73;;
19810;SDS011;10065;49.632;8.346;2022-12-29T04:20:07;6.83;;;1.50;;
19810;SDS011;10065;49.632;8.346;2022-12-29T04:23:04;3.63;;;1.00;;
19810;SDS011;10065;49.632;8.346;2022-12-29T04:25:32;4.03;;;1.00;;
19810;SDS011;10065;49.632;8.346;2022-12-29T04:28:01;3.00;;;1.07;;
19810;SDS011;10065;49.632;8.346;2022-12-29T04:30:28;4.17;;;1.23;;
19810;SDS011;10065;49.632;8.346;2022-12-29T04:32:56;2.47;;;0.90;;
19810;SDS011;10065;49.632;8.346;2022-12-29T04:35:24;4.97;;;1.63;;
19810;SDS011;10065;49.632;8.346;2022-12-29T04:37:52;2.77;;;0.93;;
19810;SDS011;10065;49.632;8.346;2022-12-29T04:40:21;5.33;;;1.00;;
19810;SDS011;10065;49.632;8.346;2022-12-29T04:42:49;2.27;;;0.97;;
19810;SDS011;10065;49.632;8.346;2022-12-29T04:45:17;2.33;;;1.20;;
19810;SDS011;10065;49.632;8.346;2022-12-29T04:47:45;2.20;;;0.83;;
19810;SDS011;10065;49.632;8.346;2022-12-29T04:50:12;4.80;;;0.90;;
19810;SDS011;10065;49.632;8.346;2022-12-29T04:52:40;1.70;;;0.80;;
19810;SDS011;10065;49.632;8.346;2022-12-29T04:55:08;1.10;;;0.67;;
19810;SDS011;10065;49.632;8.346;2022-12-29T04:57:37;2.53;;;1.00;;
19810;SDS011;10065;49.632;8.346;2022-12-29T05:00:06;2.27;;;0.73;;
19810;SDS011;10065;49.632;8.346;2022-12-29T05:02:34;2.17;;;1.17;;
19810;SDS011;10065;49.632;8.346;2022-12-29T05:05:03;5.43;;;1.10;;
19810;SDS011;10065;49.632;8.346;2022-12-29T05:07:31;5.27;;;0.93;;
19810;SDS011;10065;49.632;8.346;2022-12-29T05:10:00;2.43;;;0.93;;
19810;SDS011;10065;49.632;8.346;2022-12-29T05:12:29;2.63;;;0.83;;
19810;SDS011;10065;49.632;8.346;2022-12-29T05:14:58;4.77;;;1.10;;
19810;SDS011;10065;49.632;8.346;2022-12-29T05:17:26;1.77;;;0.80;;
19810;SDS011;10065;49.632;8.346;2022-12-29T05:19:54;1.97;;;0.80;;
19810;SDS011;10065;49.632;8.346;2022-12-29T05:22:22;1.63;;;0.80;;
19810;SDS011;10065;49.632;8.346;2022-12-29T05:24:50;4.10;;;0.77;;
19810;SDS011;10065;49.632;8.346;2022-12-29T05:27:17;4.10;;;1.17;;
19810;SDS011;10065;49.632;8.346;2022-12-29T05:29:47;2.73;;;1.10;;
19810;SDS011;10065;49.632;8.346;2022-12-29T05:32:16;2.90;;;1.00;;
19810;SDS011;10065;49.632;8.346;2022-12-29T05:34:44;1.30;;;0.80;;
19810;SDS011;10065;49.632;8.346;2022-12-29T05:37:11;6.17;;;1.00;;
19810;SDS011;10065;49.632;8.346;2022-12-29T05:39:39;2.73;;;1.10;;
19810;SDS011;10065;49.632;8.346;2022-12-29T05:42:07;2.30;;;0.90;;
19810;SDS011;10065;49.632;8.346;2022-12-29T05:44:35;1.83;;;0.80;;
19810;SDS011;10065;49.632;8.346;2022-12-29T05:47:03;4.13;;;1.20;;
19810;SDS011;10065;49.632;8.346;2022-12-29T05:49:32;3.93;;;1.30;;
19810;SDS011;10065;49.632;8.346;2022-12-29T05:52:00;2.90;;;1.33;;
19810;SDS011;10065;49.632;8.346;2022-12-29T05:54:27;3.97;;;1.30;;
19810;SDS011;10065;49.632;8.346;2022-12-29T05:56:55;2.57;;;1.30;;
19810;SDS011;10065;49.632;8.346;2022-12-29T05:59:23;2.80;;;1.20;;
19810;SDS011;10065;49.632;8.346;2022-12-29T06:01:50;2.47;;;1.07;;
19810;SDS011;10065;49.632;8.346;2022-12-29T06:04:19;3.57;;;1.23;;
19810;SDS011;10065;49.632;8.346;2022-12-29T06:06:48;4.63;;;1.23;;
19810;SDS011;10065;49.632;8.346;2022-12-29T06:09:15;4.57;;;1.03;;
19810;SDS011;10065;49.632;8.346;2022-12-29T06:11:43;4.03;;;1.33;;
19810;SDS011;10065;49.632;8.346;2022-12-29T06:14:11;2.87;;;1.20;;
19810;SDS011;10065;49.632;8.346;2022-12-29T06:16:39;5.10;;;1.23;;
19810;SDS011;10065;49.632;8.346;2022-12-29T06:19:08;4.97;;;1.50;;
19810;SDS011;10065;49.632;8.346;2022-12-29T06:21:35;5.80;;;1.70;;
19810;SDS011;10065;49.632;8.346;2022-12-29T06:24:05;1.90;;;1.10;;
19810;SDS011;10065;49.632;8.346;2022-12-29T06:26:34;3.37;;;1.20;;
19810;SDS011;10065;49.632;8.346;2022-12-29T06:29:02;5.10;;;1.30;;
19810;SDS011;10065;49.632;8.346;2022-12-29T06:31:31;2.37;;;1.17;;
19810;SDS011;10065;49.632;8.346;2022-12-29T06:33:58;6.37;;;1.43;;
19810;SDS011;10065;49.632;8.346;2022-12-29T06:36:33;3.50;;;1.60;;
19810;SDS011;10065;49.632;8.346;2022-12-29T06:39:01;3.13;;;1.20;;
19810;SDS011;10065;49.632;8.346;2022-12-29T06:41:30;3.13;;;1.17;;
19810;SDS011;10065;49.632;8.346;2022-12-29T06:43:58;3.47;;;1.20;;
19810;SDS011;10065;49.632;8.346;2022-12-29T06:46:26;5.70;;;1.80;;
19810;SDS011;10065;49.632;8.346;2022-12-29T06:48:53;3.63;;;1.30;;
19810;SDS011;10065;49.632;8.346;2022-12-29T06:51:21;5.37;;;1.47;;
19810;SDS011;10065;49.632;8.346;2022-12-29T06:53:49;4.93;;;1.23;;
19810;SDS011;10065;49.632;8.346;2022-12-29T06:56:17;5.73;;;1.30;;
19810;SDS011;10065;49.632;8.346;2022-12-29T06:58:46;5.90;;;1.63;;
19810;SDS011;10065;49.632;8.346;2022-12-29T07:01:13;5.50;;;1.63;;
19810;SDS011;10065;49.632;8.346;2022-12-29T07:03:41;3.83;;;1.20;;
19810;SDS011;10065;49.632;8.346;2022-12-29T07:06:09;6.23;;;1.63;;
19810;SDS011;10065;49.632;8.346;2022-12-29T07:08:37;2.87;;;1.10;;
19810;SDS011;10065;49.632;8.346;2022-12-29T07:11:05;2.80;;;1.40;;
19810;SDS011;10065;49.632;8.346;2022-12-29T07:13:33;4.67;;;1.57;;
19810;SDS011;10065;49.632;8.346;2022-12-29T07:16:05;8.00;;;1.90;;
19810;SDS011;10065;49.632;8.346;2022-12-29T07:18:36;4.07;;;1.60;;
19810;SDS011;10065;49.632;8.346;2022-12-29T07:21:04;3.87;;;1.60;;
19810;SDS011;10065;49.632;8.346;2022-12-29T07:23:32;3.03;;;1.50;;
19810;SDS011;10065;49.632;8.346;2022-12-29T07:26:00;4.37;;;1.23;;
19810;SDS011;10065;49.632;8.346;2022-12-29T07:28:28;4.70;;;1.50;;
19810;SDS011;10065;49.632;8.346;2022-12-29T07:30:56;4.07;;;1.63;;
19810;SDS011;10065;49.632;8.346;2022-12-29T07:33:27;5.00;;;1.37;;
19810;SDS011;10065;49.632;8.346;2022-12-29T07:35:55;5.83;;;1.40;;
19810;SDS011;10065;49.632;8.346;2022-12-29T07:38:23;4.97;;;1.70;;
19810;SDS011;10065;49.632;8.346;2022-12-29T07:40:50;5.73;;;1.50;;
19810;SDS011;10065;49.632;8.346;2022-12-29T07:43:18;4.80;;;1.30;;
19810;SDS011;10065;49.632;8.346;2022-12-29T07:45:46;8.67;;;2.13;;
19810;SDS011;10065;49.632;8.346;2022-12-29T07:48:15;5.70;;;1.73;;
19810;SDS011;10065;49.632;8.346;2022-12-29T07:50:44;4.00;;;1.43;;
19810;SDS011;10065;49.632;8.346;2022-12-29T07:53:12;5.70;;;1.52;;
19810;SDS011;10065;49.632;8.346;2022-12-29T07:55:39;4.53;;;1.60;;
19810;SDS011;10065;49.632;8.346;2022-12-29T07:58:07;2.90;;;1.30;;
19810;SDS011;10065;49.632;8.346;2022-12-29T08:00:35;5.17;;;2.20;;
19810;SDS011;10065;49.632;8.346;2022-12-29T08:03:04;6.23;;;2.00;;
19810;SDS011;10065;49.632;8.346;2022-12-29T08:05:32;5.00;;;1.50;;
19810;SDS011;10065;49.632;8.346;2022-12-29T08:08:02;3.37;;;2.00;;
19810;SDS011;10065;49.632;8.346;2022-12-29T08:10:30;5.33;;;1.70;;
19810;SDS011;10065;49.632;8.346;2022-12-29T08:12:58;5.27;;;2.47;;
19810;SDS011;10065;49.632;8.346;2022-12-29T08:15:26;3.53;;;1.80;;
19810;SDS011;10065;49.632;8.346;2022-12-29T08:17:57;5.07;;;1.60;;
19810;SDS011;10065;49.632;8.346;2022-12-29T08:20:25;6.93;;;2.13;;
19810;SDS011;10065;49.632;8.346;2022-12-29T08:22:53;4.80;;;1.50;;
19810;SDS011;10065;49.632;8.346;2022-12-29T08:25:22;3.73;;;1.63;;
19810;SDS011;10065;49.632;8.346;2022-12-29T08:27:50;7.23;;;1.77;;
19810;SDS011;10065;49.632;8.346;2022-12-29T08:30:18;5.43;;;1.87;;
19810;SDS011;10065;49.632;8.346;2022-12-29T08:32:46;4.57;;;1.70;;
19810;SDS011;10065;49.632;8.346;2022-12-29T08:35:13;4.17;;;1.40;;
19810;SDS011;10065;49.632;8.346;2022-12-29T08:37:41;4.10;;;1.80;;
19810;SDS011;10065;49.632;8.346;2022-12-29T08:40:09;4.27;;;1.63;;
19810;SDS011;10065;49.632;8.346;2022-12-29T08:42:39;2.87;;;1.30;;
19810;SDS011;10065;49.632;8.346;2022-12-29T08:45:07;4.23;;;1.67;;
19810;SDS011;10065;49.632;8.346;2022-12-29T08:47:35;6.27;;;2.20;;
19810;SDS011;10065;49.632;8.346;2022-12-29T08:50:03;6.97;;;2.80;;
19810;SDS011;10065;49.632;8.346;2022-12-29T08:52:32;5.00;;;1.77;;
19810;SDS011;10065;49.632;8.346;2022-12-29T08:55:00;3.90;;;1.93;;
19810;SDS011;10065;49.632;8.346;2022-12-29T08:57:28;5.63;;;1.80;;
19810;SDS011;10065;49.632;8.346;2022-12-29T08:59:57;1.97;;;1.20;;
19810;SDS011;10065;49.632;8.346;2022-12-29T09:02:24;6.63;;;1.87;;
19810;SDS011;10065;49.632;8.346;2022-12-29T09:04:53;6.27;;;1.73;;
19810;SDS011;10065;49.632;8.346;2022-12-29T09:07:20;5.60;;;1.97;;
19810;SDS011;10065;49.632;8.346;2022-12-29T09:09:48;5.20;;;1.80;;
19810;SDS011;10065;49.632;8.346;2022-12-29T09:12:16;3.00;;;1.60;;
19810;SDS011;10065;49.632;8.346;2022-12-29T09:14:45;3.70;;;1.57;;
19810;SDS011;10065;49.632;8.346;2022-12-29T09:17:14;3.57;;;1.50;;
19810;SDS011;10065;49.632;8.346;2022-12-29T09:19:59;5.00;;;2.27;;
19810;SDS011;10065;49.632;8.346;2022-12-29T09:22:27;4.50;;;1.67;;
19810;SDS011;10065;49.632;8.346;2022-12-29T09:24:55;4.23;;;1.60;;
19810;SDS011;10065;49.632;8.346;2022-12-29T09:27:22;4.87;;;2.07;;
19810;SDS011;10065;49.632;8.346;2022-12-29T09:29:50;3.30;;;1.73;;
19810;SDS011;10065;49.632;8.346;2022-12-29T09:32:20;6.23;;;1.50;;
19810;SDS011;10065;49.632;8.346;2022-12-29T09:34:55;4.30;;;1.53;;
19810;SDS011;10065;49.632;8.346;2022-12-29T09:37:23;4.70;;;1.87;;
19810;SDS011;10065;49.632;8.346;2022-12-29T09:39:51;3.47;;;1.93;;
19810;SDS011;10065;49.632;8.346;2022-12-29T09:42:22;3.97;;;1.60;;
19810;SDS011;10065;49.632;8.346;2022-12-29T09:44:58;4.17;;;2.00;;
19810;SDS011;10065;49.632;8.346;2022-12-29T09:47:36;3.33;;;1.60;;
19810;SDS011;10065;49.632;8.346;2022-12-29T09:50:05;7.10;;;1.70;;
19810;SDS011;10065;49.632;8.346;2022-12-29T09:52:40;4.30;;;1.27;;
19810;SDS011;10065;49.632;8.346;2022-12-29T09:55:15;3.93;;;1.67;;
19810;SDS011;10065;49.632;8.346;2022-12-29T09:57:45;3.03;;;1.40;;
19810;SDS011;10065;49.632;8.346;2022-12-29T10:00:17;4.43;;;1.30;;
19810;SDS011;10065;49.632;8.346;2022-12-29T10:02:49;2.77;;;1.83;;
19810;SDS011;10065;49.632;8.346;2022-12-29T10:05:30;5.77;;;1.70;;
19810;SDS011;10065;49.632;8.346;2022-12-29T10:08:07;4.13;;;1.50;;
19810;SDS011;10065;49.632;8.346;2022-12-29T10:10:48;2.97;;;1.23;;
19810;SDS011;10065;49.632;8.346;2022-12-29T10:13:26;4.60;;;1.50;;
19810;SDS011;10065;49.632;8.346;2022-12-29T10:16:05;6.07;;;1.57;;
19810;SDS011;10065;49.632;8.346;2022-12-29T10:18:43;2.70;;;1.40;;
19810;SDS011;10065;49.632;8.346;2022-12-29T10:21:26;3.60;;;1.33;;
19810;SDS011;10065;49.632;8.346;2022-12-29T10:24:04;4.03;;;1.70;;
19810;SDS011;10065;49.632;8.346;2022-12-29T10:26:37;3.70;;;1.70;;
19810;SDS011;10065;49.632;8.346;2022-12-29T10:29:11;4.17;;;1.47;;
19810;SDS011;10065;49.632;8.346;2022-12-29T10:31:44;5.70;;;1.60;;
19810;SDS011;10065;49.632;8.346;2022-12-29T10:34:18;4.23;;;1.50;;
19810;SDS011;10065;49.632;8.346;2022-12-29T10:36:49;2.03;;;1.17;;
19810;SDS011;10065;49.632;8.346;2022-12-29T10:39:23;3.00;;;1.47;;
19810;SDS011;10065;49.632;8.346;2022-12-29T10:41:59;4.53;;;1.47;;
19810;SDS011;10065;49.632;8.346;2022-12-29T10:44:32;5.50;;;2.00;;
19810;SDS011;10065;49.632;8.346;2022-12-29T10:47:02;3.37;;;1.63;;
19810;SDS011;10065;49.632;8.346;2022-12-29T10:49:34;2.90;;;1.33;;
19810;SDS011;10065;49.632;8.346;2022-12-29T10:52:06;4.17;;;1.40;;
19810;SDS011;10065;49.632;8.346;2022-12-29T10:54:42;1.77;;;1.10;;
19810;SDS011;10065;49.632;8.346;2022-12-29T10:57:18;4.53;;;1.23;;
19810;SDS011;10065;49.632;8.346;2022-12-29T10:59:53;3.57;;;0.90;;
19810;SDS011;10065;49.632;8.346;2022-12-29T11:02:43;2.30;;;0.80;;
19810;SDS011;10065;49.632;8.346;2022-12-29T11:05:25;2.00;;;0.87;;
19810;SDS011;10065;49.632;8.346;2022-12-29T11:08:02;3.97;;;1.23;;
19810;SDS011;10065;49.632;8.346;2022-12-29T11:10:34;5.57;;;1.30;;
19810;SDS011;10065;49.632;8.346;2022-12-29T11:13:10;3.07;;;1.50;;
19810;SDS011;10065;49.632;8.346;2022-12-29T11:15:40;4.73;;;1.30;;
19810;SDS011;10065;49.632;8.346;2022-12-29T11:18:17;10.20;;;1.80;;
19810;SDS011;10065;49.632;8.346;2022-12-29T11:20:48;4.43;;;1.80;;
19810;SDS011;10065;49.632;8.346;2022-12-29T11:23:25;5.87;;;2.27;;
19810;SDS011;10065;49.632;8.346;2022-12-29T11:26:08;4.83;;;1.80;;
19810;SDS011;10065;49.632;8.346;2022-12-29T11:28:42;5.87;;;1.77;;
19810;SDS011;10065;49.632;8.346;2022-12-29T11:31:15;5.97;;;1.90;;
19810;SDS011;10065;49.632;8.346;2022-12-29T11:33:44;3.00;;;1.10;;
19810;SDS011;10065;49.632;8.346;2022-12-29T11:36:15;5.07;;;1.43;;
19810;SDS011;10065;49.632;8.346;2022-12-29T11:38:46;2.70;;;1.20;;
19810;SDS011;10065;49.632;8.346;2022-12-29T11:41:19;2.13;;;0.93;;
19810;SDS011;10065;49.632;8.346;2022-12-29T11:43:52;3.17;;;1.00;;
19810;SDS011;10065;49.632;8.346;2022-12-29T11:46:22;2.73;;;1.00;;
19810;SDS011;10065;49.632;8.346;2022-12-29T11:48:54;2.27;;;0.70;;
19810;SDS011;10065;49.632;8.346;2022-12-29T11:51:27;5.77;;;1.17;;
19810;SDS011;10065;49.632;8.346;2022-12-29T11:53:58;5.53;;;1.20;;
19810;SDS011;10065;49.632;8.346;2022-12-29T11:56:32;3.63;;;1.00;;
19810;SDS011;10065;49.632;8.346;2022-12-29T11:59:34;3.73;;;1.20;;
19810;SDS011;10065;49.632;8.346;2022-12-29T12:02:14;2.80;;;0.80;;
19810;SDS011;10065;49.632;8.346;2022-12-29T12:05:11;5.23;;;1.43;;
19810;SDS011;10065;49.632;8.346;2022-12-29T12:07:49;3.27;;;1.00;;
19810;SDS011;10065;49.632;8.346;2022-12-29T12:10:21;3.47;;;0.90;;
19810;SDS011;10065;49.632;8.346;2022-12-29T12:12:53;3.30;;;0.77;;
19810;SDS011;10065;49.632;8.346;2022-12-29T12:15:30;3.60;;;0.73;;
19810;SDS011;10065;49.632;8.346;2022-12-29T12:18:13;2.57;;;1.10;;
19810;SDS011;10065;49.632;8.346;2022-12-29T12:20:47;4.17;;;1.17;;
19810;SDS011;10065;49.632;8.346;2022-12-29T12:23:27;4.27;;;1.03;;
19810;SDS011;10065;49.632;8.346;2022-12-29T12:26:05;3.87;;;1.00;;
19810;SDS011;10065;49.632;8.346;2022-12-29T12:28:40;5.23;;;1.40;;
19810;SDS011;10065;49.632;8.346;2022-12-29T12:31:17;2.90;;;0.90;;
19810;SDS011;10065;49.632;8.346;2022-12-29T12:33:51;2.17;;;1.00;;
19810;SDS011;10065;49.632;8.346;2022-12-29T12:36:29;3.60;;;1.40;;
19810;SDS011;10065;49.632;8.346;2022-12-29T12:39:15;3.07;;;0.83;;
19810;SDS011;10065;49.632;8.346;2022-12-29T12:41:54;3.53;;;1.20;;
19810;SDS011;10065;49.632;8.346;2022-12-29T12:44:35;3.10;;;1.00;;
19810;SDS011;10065;49.632;8.346;2022-12-29T12:47:19;4.50;;;1.40;;
19810;SDS011;10065;49.632;8.346;2022-12-29T12:50:22;6.57;;;1.57;;
19810;SDS011;10065;49.632;8.346;2022-12-29T12:53:12;2.77;;;0.93;;
19810;SDS011;10065;49.632;8.346;2022-12-29T12:56:06;4.07;;;1.20;;
19810;SDS011;10065;49.632;8.346;2022-12-29T12:58:49;2.53;;;1.03;;
19810;SDS011;10065;49.632;8.346;2022-12-29T13:01:25;3.70;;;1.10;;
19810;SDS011;10065;49.632;8.346;2022-12-29T13:04:08;2.93;;;1.00;;
19810;SDS011;10065;49.632;8.346;2022-12-29T13:06:49;3.73;;;1.00;;
19810;SDS011;10065;49.632;8.346;2022-12-29T13:09:29;4.23;;;1.20;;
19810;SDS011;10065;49.632;8.346;2022-12-29T13:12:13;3.33;;;1.43;;
19810;SDS011;10065;49.632;8.346;2022-12-29T13:14:57;4.80;;;1.40;;
19810;SDS011;10065;49.632;8.346;2022-12-29T13:17:36;3.20;;;1.40;;
19810;SDS011;10065;49.632;8.346;2022-12-29T13:20:12;5.90;;;1.43;;
19810;SDS011;10065;49.632;8.346;2022-12-29T13:22:54;6.90;;;1.30;;
19810;SDS011;10065;49.632;8.346;2022-12-29T13:25:29;3.90;;;0.90;;
19810;SDS011;10065;49.632;8.346;2022-12-29T13:28:08;4.40;;;1.33;;
19810;SDS011;10065;49.632;8.346;2022-12-29T13:30:41;2.07;;;0.97;;
19810;SDS011;10065;49.632;8.346;2022-12-29T13:33:20;3.30;;;1.03;;
19810;SDS011;10065;49.632;8.346;2022-12-29T13:35:56;3.37;;;0.80;;
19810;SDS011;10065;49.632;8.346;2022-12-29T13:38:29;3.77;;;1.27;;
19810;SDS011;10065;49.632;8.346;2022-12-29T13:41:04;3.87;;;0.90;;
19810;SDS011;10065;49.632;8.346;2022-12-29T13:43:37;3.23;;;1.13;;
19810;SDS011;10065;49.632;8.346;2022-12-29T13:46:12;2.10;;;0.80;;
19810;SDS011;10065;49.632;8.346;2022-12-29T13:48:45;3.07;;;1.07;;
19810;SDS011;10065;49.632;8.346;2022-12-29T13:51:18;3.27;;;0.87;;
19810;SDS011;10065;49.632;8.346;2022-12-29T13:53:56;2.53;;;0.63;;
19810;SDS011;10065;49.632;8.346;2022-12-29T13:56:34;5.07;;;1.23;;
19810;SDS011;10065;49.632;8.346;2022-12-29T13:59:11;2.57;;;0.67;;
19810;SDS011;10065;49.632;8.346;2022-12-29T14:01:48;2.60;;;0.80;;
19810;SDS011;10065;49.632;8.346;2022-12-29T14:04:22;6.50;;;1.20;;
19810;SDS011;10065;49.632;8.346;2022-12-29T14:07:02;3.73;;;0.83;;
19810;SDS011;10065;49.632;8.346;2022-12-29T14:09:40;2.07;;;0.50;;
19810;SDS011;10065;49.632;8.346;2022-12-29T14:12:19;3.83;;;0.77;;
19810;SDS011;10065;49.632;8.346;2022-12-29T14:14:54;3.50;;;0.80;;
19810;SDS011;10065;49.632;8.346;2022-12-29T14:17:29;2.73;;;0.80;;
19810;SDS011;10065;49.632;8.346;2022-12-29T14:19:57;3.50;;;0.90;;
19810;SDS011;10065;49.632;8.346;2022-12-29T14:22:25;5.03;;;1.30;;
19810;SDS011;10065;49.632;8.346;2022-12-29T14:24:59;5.17;;;1.03;;
19810;SDS011;10065;49.632;8.346;2022-12-29T14:27:43;2.93;;;0.90;;
19810;SDS011;10065;49.632;8.346;2022-12-29T14:33:16;6.30;;;1.50;;
19810;SDS011;10065;49.632;8.346;2022-12-29T14:35:45;3.33;;;0.97;;
19810;SDS011;10065;49.632;8.346;2022-12-29T14:38:26;3.03;;;1.10;;
19810;SDS011;10065;49.632;8.346;2022-12-29T14:41:15;5.07;;;1.00;;
19810;SDS011;10065;49.632;8.346;2022-12-29T14:43:53;4.20;;;1.40;;
19810;SDS011;10065;49.632;8.346;2022-12-29T14:46:25;4.30;;;1.23;;
19810;SDS011;10065;49.632;8.346;2022-12-29T14:49:10;1.80;;;0.90;;
19810;SDS011;10065;49.632;8.346;2022-12-29T14:51:44;7.23;;;1.20;;
19810;SDS011;10065;49.632;8.346;2022-12-29T14:54:34;4.23;;;0.93;;
19810;SDS011;10065;49.632;8.346;2022-12-29T14:57:28;5.27;;;1.40;;
19810;SDS011;10065;49.632;8.346;2022-12-29T15:00:03;3.87;;;1.20;;
19810;SDS011;10065;49.632;8.346;2022-12-29T15:02:37;2.30;;;0.90;;
19810;SDS011;10065;49.632;8.346;2022-12-29T15:05:22;3.60;;;1.07;;
19810;SDS011;10065;49.632;8.346;2022-12-29T15:07:55;3.23;;;1.00;;
19810;SDS011;10065;49.632;8.346;2022-12-29T15:10:25;6.50;;;1.20;;
19810;SDS011;10065;49.632;8.346;2022-12-29T15:13:02;2.40;;;0.73;;
19810;SDS011;10065;49.632;8.346;2022-12-29T15:15:35;4.80;;;1.60;;
19810;SDS011;10065;49.632;8.346;2022-12-29T15:18:23;5.37;;;1.30;;
19810;SDS011;10065;49.632;8.346;2022-12-29T15:20:53;4.07;;;1.00;;
19810;SDS011;10065;49.632;8.346;2022-12-29T15:23:23;5.97;;;1.50;;
19810;SDS011;10065;49.632;8.346;2022-12-29T15:25:53;3.83;;;1.37;;